Time;durP1;ratioP1;P1;durP2;ratioP2;P2;SDS_P1;SDS_P2;PMS_P1;PMS_P2;Temp;Humidity;BMP_temperature;BMP_pressure;BME280_temperature;BME280_humidity;BME280_pressure;Samples;Min_cycle;Max_cycle;Signal;HPM_P1;HPM_P2
2022/08/24 00:01:17;;;;;;;12.73;5.10;;;;;;;21.26;100.00;99849.77;1743404;81;21046;-69
2022/08/24 00:03:44;;;;;;;6.95;4.85;;;;;;;21.26;100.00;99847.57;1746260;81;21047;-69
2022/08/24 00:06:19;;;;;;;8.18;4.90;;;;;;;21.24;100.00;99852.08;1749492;81;21410;-68
2022/08/24 00:08:48;;;;;;;8.05;4.87;;;;;;;21.24;100.00;99854.03;1756360;80;21098;-69
2022/08/24 00:11:15;;;;;;;8.73;5.42;;;;;;;21.25;100.00;99859.81;1721311;83;21506;-69
2022/08/24 00:13:43;;;;;;;8.75;5.00;;;;;;;21.23;100.00;99853.22;1742685;81;21146;-68
2022/08/24 00:16:10;;;;;;;10.13;5.08;;;;;;;21.25;100.00;99863.40;1751006;81;21000;-69
2022/08/24 00:18:38;;;;;;;8.20;5.03;;;;;;;21.29;100.00;99854.63;1750222;80;21522;-68
2022/08/24 00:21:04;;;;;;;8.58;5.28;;;;;;;21.30;100.00;99863.17;1757404;80;20960;-69
2022/08/24 00:23:32;;;;;;;12.98;5.60;;;;;;;21.31;100.00;99859.27;1770489;80;21044;-69
2022/08/24 00:25:58;;;;;;;12.03;4.60;;;;;;;21.30;100.00;99866.52;1755028;80;20988;-69
2022/08/24 00:28:25;;;;;;;9.98;5.17;;;;;;;21.29;100.00;99870.45;1748509;80;21508;-69
2022/08/24 00:30:51;;;;;;;13.90;5.58;;;;;;;21.28;100.00;99871.59;1766572;81;21491;-69
2022/08/24 00:33:17;;;;;;;8.80;5.30;;;;;;;21.25;100.00;99873.09;1745727;80;21070;-68
2022/08/24 00:35:44;;;;;;;8.98;5.35;;;;;;;21.24;100.00;99871.46;1757819;81;21031;-68
2022/08/24 00:38:10;;;;;;;8.65;5.25;;;;;;;21.23;100.00;99875.94;1751615;80;21553;-68
2022/08/24 00:40:41;;;;;;;10.53;5.22;;;;;;;21.20;100.00;99881.59;1750538;81;20979;-68
2022/08/24 00:43:10;;;;;;;10.30;5.40;;;;;;;21.18;100.00;99877.55;1743357;81;21107;-69
2022/08/24 00:45:48;;;;;;;11.10;5.47;;;;;;;21.15;100.00;99869.92;1746498;80;21693;-68
2022/08/24 00:48:21;;;;;;;11.83;5.30;;;;;;;21.12;100.00;99876.92;1747298;81;21652;-68
2022/08/24 00:51:07;;;;;;;9.93;5.90;;;;;;;21.08;100.00;99874.56;1747241;81;21034;-68
2022/08/24 00:53:38;;;;;;;9.10;5.33;;;;;;;21.03;100.00;99869.25;1756050;80;21133;-68
2022/08/24 00:56:09;;;;;;;11.60;5.20;;;;;;;20.96;100.00;99873.13;1752085;80;21097;-68
2022/08/24 00:58:46;;;;;;;9.90;5.10;;;;;;;20.89;100.00;99870.09;1746951;80;21126;-68
2022/08/24 01:01:13;;;;;;;8.93;5.22;;;;;;;20.82;100.00;99871.20;1746289;82;21046;-69
2022/08/24 01:03:41;;;;;;;11.35;5.53;;;;;;;20.76;100.00;99876.70;1752705;81;21126;-69
2022/08/24 01:06:09;;;;;;;6.35;5.00;;;;;;;20.71;100.00;99880.47;1748851;81;22496;-69
2022/08/24 01:08:35;;;;;;;9.95;5.40;;;;;;;20.67;100.00;99878.70;1747803;81;21087;-69
2022/08/24 01:11:11;;;;;;;12.50;5.40;;;;;;;20.62;100.00;99882.45;1760817;81;21019;-69
2022/08/24 01:13:43;;;;;;;12.53;5.03;;;;;;;20.59;100.00;99879.55;1756238;81;21051;-69
2022/08/24 01:16:10;;;;;;;8.88;5.45;;;;;;;20.53;100.00;99884.48;1722988;82;20964;-69
2022/08/24 01:18:48;;;;;;;8.30;5.15;;;;;;;20.50;100.00;99885.15;1708604;83;21060;-69
2022/08/24 01:21:32;;;;;;;11.10;4.90;;;;;;;20.50;100.00;99887.09;1688518;84;20996;-69
2022/08/24 01:24:02;;;;;;;12.03;5.08;;;;;;;20.46;100.00;99878.66;1685923;84;21154;-69
2022/08/24 01:26:42;;;;;;;9.33;5.37;;;;;;;20.42;100.00;99881.85;1740028;81;21015;-68
2022/08/24 01:29:12;;;;;;;7.42;5.00;;;;;;;20.38;100.00;99882.84;1750392;81;21079;-68
2022/08/24 01:31:39;;;;;;;9.53;5.62;;;;;;;20.33;100.00;99891.55;1750924;81;21055;-69
2022/08/24 01:34:05;;;;;;;8.00;4.92;;;;;;;20.31;100.00;99892.47;1740898;81;21128;-69
2022/08/24 01:36:47;;;;;;;12.13;5.50;;;;;;;20.28;100.00;99890.95;1741602;81;22143;-68
2022/08/24 01:39:24;;;;;;;8.95;4.97;;;;;;;20.26;100.00;99894.00;1742764;81;21098;-68
2022/08/24 01:41:51;;;;;;;8.55;5.28;;;;;;;20.22;100.00;99890.30;1741879;81;21010;-68
2022/08/24 01:44:19;;;;;;;9.48;4.97;;;;;;;20.20;100.00;99896.72;1743250;80;21066;-68
2022/08/24 01:46:47;;;;;;;8.83;4.60;;;;;;;20.20;100.00;99901.42;1746259;82;21062;-68
2022/08/24 01:49:14;;;;;;;10.65;4.75;;;;;;;20.19;100.00;99895.69;1742074;81;21649;-68
2022/08/24 01:51:41;;;;;;;11.78;5.53;;;;;;;20.16;100.00;99905.99;1738080;81;21007;-68
2022/08/24 01:54:07;;;;;;;10.05;4.95;;;;;;;20.13;100.00;99899.19;1738483;81;21459;-67
2022/08/24 01:56:35;;;;;;;9.20;4.80;;;;;;;20.10;100.00;99899.03;1742774;81;21047;-68
2022/08/24 01:59:02;;;;;;;8.10;4.72;;;;;;;20.05;100.00;99908.30;1740329;81;21079;-68
2022/08/24 02:01:31;;;;;;;8.90;5.35;;;;;;;20.01;100.00;99904.61;1737687;81;21501;-67
2022/08/24 02:03:58;;;;;;;6.90;4.83;;;;;;;19.96;100.00;99909.48;1707644;83;21075;-68
2022/08/24 02:06:25;;;;;;;11.20;4.75;;;;;;;19.94;100.00;99907.63;1739669;81;22312;-69
2022/08/24 02:08:53;;;;;;;10.32;5.20;;;;;;;19.88;100.00;99905.03;1739235;81;21055;-68
2022/08/24 02:11:19;;;;;;;8.70;5.30;;;;;;;19.87;100.00;99906.77;1756017;81;21581;-68
2022/08/24 02:13:46;;;;;;;8.45;5.12;;;;;;;19.84;100.00;99902.69;1737911;81;21110;-68
2022/08/24 02:16:13;;;;;;;9.50;4.95;;;;;;;19.82;100.00;99900.84;1703738;81;20995;-69
2022/08/24 02:18:40;;;;;;;8.50;5.28;;;;;;;19.81;100.00;99894.24;1738508;81;21047;-69
2022/08/24 02:21:08;;;;;;;8.60;5.12;;;;;;;19.79;100.00;99895.97;1749577;81;21050;-68
2022/08/24 02:23:36;;;;;;;12.75;5.53;;;;;;;19.78;100.00;99896.29;1744156;81;21394;-68
2022/08/24 02:26:04;;;;;;;9.90;4.90;;;;;;;19.78;100.00;99899.05;1743070;81;21471;-68
2022/08/24 02:28:32;;;;;;;6.55;4.70;;;;;;;19.78;100.00;99894.91;1720094;82;21543;-68
2022/08/24 02:31:00;;;;;;;6.58;4.83;;;;;;;19.77;100.00;99897.42;1754166;81;21435;-68
2022/08/24 02:33:26;;;;;;;12.73;5.05;;;;;;;19.76;100.00;99895.81;1703743;82;21116;-67
2022/08/24 02:35:53;;;;;;;11.48;4.83;;;;;;;19.74;100.00;99896.70;1683541;84;20980;-68
2022/08/24 02:38:20;;;;;;;12.95;5.45;;;;;;;19.72;100.00;99903.95;1683810;84;21514;-68
2022/08/24 02:40:47;;;;;;;8.00;5.08;;;;;;;19.70;100.00;99906.77;1679733;84;21558;-68
2022/08/24 02:43:13;;;;;;;7.53;4.87;;;;;;;19.69;100.00;99909.31;1740988;82;21054;-68
2022/08/24 02:45:43;;;;;;;8.73;4.70;;;;;;;19.68;100.00;99910.45;1740566;81;21015;-68
2022/08/24 02:48:10;;;;;;;9.53;5.00;;;;;;;19.66;100.00;99911.36;1740079;81;21067;-69
2022/08/24 02:50:42;;;;;;;10.13;5.20;;;;;;;19.65;100.00;99911.11;1748340;81;21065;-69
2022/08/24 02:53:09;;;;;;;7.55;5.37;;;;;;;19.66;100.00;99914.12;1709197;81;21103;-69
2022/08/24 02:55:38;;;;;;;9.48;4.92;;;;;;;19.63;100.00;99911.42;1741377;81;21496;-69
2022/08/24 02:58:04;;;;;;;10.08;5.00;;;;;;;19.60;100.00;99908.50;1721209;82;21584;-69
2022/08/24 03:00:32;;;;;;;9.20;5.35;;;;;;;19.58;100.00;99908.03;1733969;81;21015;-69
2022/08/24 03:02:58;;;;;;;14.87;4.95;;;;;;;19.56;100.00;99907.53;1737341;81;21103;-69
2022/08/24 03:05:25;;;;;;;8.35;5.03;;;;;;;19.55;100.00;99904.55;1741158;81;21075;-68
2022/08/24 03:07:52;;;;;;;11.35;5.22;;;;;;;19.54;100.00;99904.30;1741647;80;21079;-67
2022/08/24 03:10:20;;;;;;;10.60;5.40;;;;;;;19.54;100.00;99905.11;1738526;81;21888;-69
2022/08/24 03:12:48;;;;;;;12.40;5.70;;;;;;;19.54;100.00;99902.91;1739012;81;21570;-68
2022/08/24 03:15:15;;;;;;;10.43;5.60;;;;;;;19.54;100.00;99906.49;1728197;81;21062;-68
2022/08/24 03:17:42;;;;;;;11.43;5.58;;;;;;;19.54;100.00;99910.64;1741956;81;21629;-68
2022/08/24 03:20:12;;;;;;;6.83;5.22;;;;;;;19.54;100.00;99910.64;1749485;81;20973;-68
2022/08/24 03:22:39;;;;;;;12.82;5.40;;;;;;;19.55;100.00;99915.03;1737743;81;21119;-68
2022/08/24 03:25:07;;;;;;;10.23;5.20;;;;;;;19.56;100.00;99913.05;1739379;81;21000;-68
2022/08/24 03:27:33;;;;;;;10.58;5.90;;;;;;;19.58;100.00;99915.75;1743339;80;21027;-68
2022/08/24 03:30:00;;;;;;;9.65;5.00;;;;;;;19.60;100.00;99916.78;1743396;81;20984;-68
2022/08/24 03:32:27;;;;;;;10.40;4.78;;;;;;;19.62;100.00;99924.19;1729476;81;20987;-68
2022/08/24 03:34:54;;;;;;;11.33;5.15;;;;;;;19.64;100.00;99927.42;1737048;81;21514;-68
2022/08/24 03:37:21;;;;;;;9.13;4.75;;;;;;;19.65;100.00;99924.35;1715678;81;21015;-67
2022/08/24 03:39:49;;;;;;;7.80;5.35;;;;;;;19.67;100.00;99924.00;1739570;81;21593;-68
2022/08/24 03:42:17;;;;;;;9.88;5.62;;;;;;;19.69;100.00;99918.98;1699898;82;21047;-68
2022/08/24 03:44:44;;;;;;;11.97;5.75;;;;;;;19.70;100.00;99921.40;1743478;81;21035;-69
2022/08/24 03:47:13;;;;;;;10.48;5.12;;;;;;;19.73;100.00;99917.98;1741730;81;21035;-70
2022/08/24 03:49:40;;;;;;;10.63;4.92;;;;;;;19.75;100.00;99921.24;1749535;81;21059;-67
2022/08/24 03:52:07;;;;;;;13.32;5.40;;;;;;;19.78;100.00;99919.20;1744869;81;21086;-67
2022/08/24 03:54:35;;;;;;;11.12;5.22;;;;;;;19.80;100.00;99923.81;1742875;81;21050;-69
2022/08/24 03:57:02;;;;;;;9.53;4.70;;;;;;;19.82;100.00;99927.08;1740439;81;21042;-70
2022/08/24 03:59:28;;;;;;;11.35;4.78;;;;;;;19.86;100.00;99923.09;1741629;81;21055;-69
2022/08/24 04:01:57;;;;;;;9.58;4.70;;;;;;;19.90;100.00;99930.96;1717777;82;21031;-68
2022/08/24 04:04:25;;;;;;;9.13;5.15;;;;;;;19.94;100.00;99926.41;1724123;81;21096;-69
2022/08/24 04:06:52;;;;;;;9.70;4.90;;;;;;;20.01;100.00;99933.63;1701785;82;21075;-70
2022/08/24 04:09:20;;;;;;;7.53;5.25;;;;;;;20.13;100.00;99933.73;1722937;81;21099;-69
2022/08/24 04:11:47;;;;;;;8.60;4.60;;;;;;;20.28;100.00;99935.17;1734220;82;21035;-67
2022/08/24 04:17:06;;;;;;;9.55;4.62;;;;;;;20.65;100.00;99932.17;1803027;79;23045;-66
2022/08/24 04:19:35;;;;;;;8.53;4.85;;;;;;;20.72;100.00;99936.60;1737997;80;21087;-68
2022/08/24 04:22:02;;;;;;;10.23;4.62;;;;;;;20.84;100.00;99935.30;1744508;81;21556;-67
2022/08/24 04:24:30;;;;;;;9.43;4.30;;;;;;;20.99;100.00;99934.72;1717279;82;21034;-67
2022/08/24 04:26:57;;;;;;;7.30;4.50;;;;;;;21.12;100.00;99929.52;1713859;82;21062;-68
2022/08/24 04:29:24;;;;;;;8.65;4.28;;;;;;;21.28;100.00;99938.04;1681609;84;21106;-67
2022/08/24 04:31:52;;;;;;;10.05;4.22;;;;;;;21.42;100.00;99933.61;1689003;83;21100;-68
2022/08/24 04:34:19;;;;;;;10.08;4.50;;;;;;;21.57;100.00;99928.27;1679818;83;21122;-68
2022/08/24 04:36:45;;;;;;;11.78;4.25;;;;;;;21.72;100.00;99927.61;1678232;83;21633;-69
2022/08/24 04:39:13;;;;;;;7.92;4.80;;;;;;;21.84;100.00;99929.05;1694166;82;21102;-68
2022/08/24 04:41:56;;;;;;;7.28;4.60;;;;;;;21.98;100.00;99917.68;1682449;85;21114;-68
2022/08/24 04:44:23;;;;;;;13.75;5.33;;;;;;;22.16;100.00;99915.52;1687030;84;21141;-68
2022/08/24 04:46:49;;;;;;;9.35;5.12;;;;;;;22.31;100.00;99912.08;1679301;85;21569;-68
2022/08/24 04:49:16;;;;;;;10.63;5.30;;;;;;;22.42;98.63;99906.88;1687291;83;21118;-68
2022/08/24 04:51:43;;;;;;;8.08;4.72;;;;;;;22.52;98.87;99911.39;1695609;83;21096;-69
2022/08/24 04:54:09;;;;;;;10.45;4.55;;;;;;;22.60;97.60;99914.61;1693538;83;21081;-68
2022/08/24 04:56:38;;;;;;;9.63;4.35;;;;;;;22.74;96.81;99908.76;1693024;84;21089;-68
2022/08/24 04:59:05;;;;;;;8.93;4.60;;;;;;;22.95;94.14;99911.39;1690886;83;21122;-67
2022/08/24 05:01:32;;;;;;;9.23;4.12;;;;;;;23.12;91.98;99919.45;1686647;84;21772;-70
2022/08/24 05:03:59;;;;;;;8.63;4.25;;;;;;;23.27;89.93;99917.33;1657973;85;21082;-68
2022/08/24 05:06:28;;;;;;;8.20;4.08;;;;;;;23.40;85.07;99912.53;1710150;82;21055;-70
2022/08/24 05:08:56;;;;;;;9.53;3.67;;;;;;;23.48;84.03;99911.61;1715810;82;21085;-70
2022/08/24 05:11:25;;;;;;;10.32;3.87;;;;;;;23.56;84.56;99918.39;1712566;82;21130;-68
2022/08/24 05:13:53;;;;;;;7.40;4.05;;;;;;;23.70;84.98;99920.18;1716142;82;21153;-71
2022/08/24 05:16:20;;;;;;;9.03;3.85;;;;;;;23.83;80.74;99919.55;1648635;85;21658;-69
2022/08/24 05:18:47;;;;;;;10.95;3.95;;;;;;;23.94;81.34;99919.84;1686950;83;21095;-68
2022/08/24 05:21:17;;;;;;;11.00;3.80;;;;;;;24.04;79.37;99913.75;1678317;84;21050;-69
2022/08/24 05:23:44;;;;;;;7.03;3.62;;;;;;;24.17;76.87;99918.09;1690550;83;21030;-69
2022/08/24 05:26:18;;;;;;;8.78;3.50;;;;;;;24.24;76.79;99916.31;1675660;85;21134;-68
2022/08/24 05:28:46;;;;;;;7.60;3.42;;;;;;;24.43;74.88;99919.77;1686620;83;21640;-69
2022/08/24 05:31:16;;;;;;;7.97;3.90;;;;;;;24.58;72.26;99916.18;1667836;84;21114;-68
2022/08/24 05:33:44;;;;;;;7.05;3.50;;;;;;;24.74;72.05;99915.56;1689173;84;21613;-69
2022/08/24 05:36:29;;;;;;;6.20;3.35;;;;;;;24.83;70.25;99913.17;1688708;84;21093;-71
2022/08/24 05:38:57;;;;;;;5.72;2.83;;;;;;;24.90;69.41;99916.97;1694170;83;21118;-69
2022/08/24 05:41:24;;;;;;;6.22;3.08;;;;;;;25.01;71.24;99917.20;1677219;84;21087;-69
2022/08/24 05:43:52;;;;;;;6.78;2.92;;;;;;;25.16;69.60;99921.32;1693133;83;21098;-70
2022/08/24 05:46:19;;;;;;;7.15;3.17;;;;;;;25.31;67.91;99925.80;1687105;84;21094;-67
2022/08/24 05:48:47;;;;;;;10.70;3.35;;;;;;;25.44;65.87;99923.09;1691505;83;21114;-70
2022/08/24 05:51:22;;;;;;;11.60;4.12;;;;;;;25.59;65.27;99909.70;1690201;84;21440;-66
2022/08/24 05:53:50;;;;;;;7.55;3.20;;;;;;;25.78;63.58;99923.64;1687498;83;21593;-65
2022/08/24 05:56:17;;;;;;;6.70;3.35;;;;;;;25.93;65.31;99928.32;1658203;85;21086;-67
2022/08/24 05:58:44;;;;;;;5.50;2.90;;;;;;;26.07;63.57;99931.96;1689330;83;21154;-66
2022/08/24 06:01:23;;;;;;;5.85;3.00;;;;;;;26.19;61.75;99932.61;1691719;83;21545;-66
2022/08/24 06:03:51;;;;;;;6.60;3.10;;;;;;;26.25;61.44;99928.94;1690405;83;21110;-65
2022/08/24 06:06:18;;;;;;;10.18;3.47;;;;;;;26.29;58.68;99932.57;1687694;84;21506;-66
2022/08/24 06:08:47;;;;;;;5.87;2.85;;;;;;;26.34;60.42;99935.65;1677594;84;21135;-65
2022/08/24 06:11:28;;;;;;;9.50;3.50;;;;;;;26.47;60.26;99933.69;1666815;85;21092;-65
2022/08/24 06:13:58;;;;;;;8.10;3.60;;;;;;;26.67;60.01;99941.41;1693201;83;21078;-66
2022/08/24 06:16:26;;;;;;;8.68;2.90;;;;;;;26.77;58.24;99935.18;1716524;82;21082;-66
2022/08/24 06:18:53;;;;;;;6.15;2.90;;;;;;;26.83;57.77;99935.69;1696531;82;21611;-64
2022/08/24 06:21:24;;;;;;;7.85;3.75;;;;;;;26.94;57.46;99936.07;1725691;81;21075;-65
2022/08/24 06:23:51;;;;;;;8.15;3.02;;;;;;;27.05;57.30;99946.00;1738570;80;21672;-64
2022/08/24 06:29:04;;;;;;;11.22;3.52;;;;;;;27.32;55.09;99942.58;1734852;81;21640;-64
2022/08/24 06:31:36;;;;;;;5.17;3.22;;;;;;;27.36;54.05;99943.44;1733391;82;21065;-66
2022/08/24 06:34:02;;;;;;;6.10;3.08;;;;;;;27.42;53.67;99939.92;1709942;82;21511;-66
2022/08/24 06:36:29;;;;;;;8.90;3.50;;;;;;;27.45;53.58;99936.42;1723731;82;21086;-66
2022/08/24 06:38:56;;;;;;;12.10;3.37;;;;;;;27.58;55.08;99938.37;1691137;82;21026;-64
2022/08/24 06:41:22;;;;;;;8.85;3.30;;;;;;;27.71;53.61;99941.12;1725654;81;21066;-66
2022/08/24 06:43:49;;;;;;;11.30;3.27;;;;;;;27.80;53.78;99945.02;1732474;81;21086;-66
2022/08/24 06:46:16;;;;;;;7.42;3.08;;;;;;;27.89;52.40;99939.92;1728859;81;21077;-66
2022/08/24 06:48:45;;;;;;;8.78;3.20;;;;;;;28.02;52.51;99944.86;1726937;81;21094;-67
2022/08/24 06:51:14;;;;;;;8.28;3.33;;;;;;;28.14;51.38;99946.03;1723532;82;21059;-67
2022/08/24 06:53:41;;;;;;;7.08;3.05;;;;;;;28.28;50.44;99947.35;1737832;81;21047;-66
2022/08/24 06:56:08;;;;;;;8.30;2.87;;;;;;;28.32;49.15;99945.39;1723844;81;21612;-66
2022/08/24 06:58:35;;;;;;;9.40;3.42;;;;;;;28.29;50.28;99946.98;1725209;81;21039;-64
2022/08/24 07:01:15;;;;;;;10.72;3.47;;;;;;;28.35;50.61;99940.42;1730270;82;21034;-66
2022/08/24 07:03:42;;;;;;;8.28;3.00;;;;;;;28.44;49.80;99939.52;1689567;84;21147;-66
2022/08/24 07:06:12;;;;;;;7.33;3.30;;;;;;;28.50;49.60;99946.37;1706646;82;21058;-66
2022/08/24 07:08:42;;;;;;;8.58;3.50;;;;;;;28.58;49.09;99939.05;1735168;81;22054;-65
2022/08/24 07:11:10;;;;;;;8.58;3.40;;;;;;;28.63;50.20;99944.87;1726677;82;21060;-66
2022/08/24 07:13:37;;;;;;;11.90;3.58;;;;;;;28.69;49.97;99943.37;1719594;82;21059;-67
2022/08/24 07:16:05;;;;;;;7.65;3.60;;;;;;;28.74;50.02;99936.58;1708889;81;21690;-66
2022/08/24 07:18:33;;;;;;;10.13;3.27;;;;;;;28.83;49.65;99944.88;1723810;81;21074;-68
2022/08/24 07:21:01;;;;;;;8.15;3.00;;;;;;;28.83;50.14;99948.27;1744837;81;21067;-65
2022/08/24 07:23:39;;;;;;;8.58;3.62;;;;;;;28.93;50.51;99952.55;1720904;82;21617;-66
2022/08/24 07:26:08;;;;;;;12.63;3.62;;;;;;;28.98;50.55;99952.17;1732336;81;21026;-66
2022/08/24 07:28:38;;;;;;;7.85;3.30;;;;;;;29.01;49.43;99961.22;1737788;82;21699;-67
2022/08/24 07:31:08;;;;;;;9.93;3.58;;;;;;;28.98;50.46;99961.20;1739313;82;21077;-66
2022/08/24 07:33:36;;;;;;;9.18;3.70;;;;;;;29.02;49.41;99960.59;1733848;80;21780;-68
2022/08/24 07:36:03;;;;;;;9.88;3.77;;;;;;;28.91;49.25;99952.12;1741638;81;21080;-67
2022/08/24 07:38:29;;;;;;;8.60;3.98;;;;;;;28.91;51.00;99952.74;1734366;81;21137;-67
2022/08/24 07:40:59;;;;;;;11.33;3.62;;;;;;;28.84;50.78;99954.09;1740961;82;21041;-68
2022/08/24 07:43:26;;;;;;;11.18;3.90;;;;;;;28.79;51.77;99960.85;1742917;80;21070;-65
2022/08/24 07:45:53;;;;;;;5.22;3.22;;;;;;;28.78;52.82;99957.02;1737603;82;21011;-67
2022/08/24 07:48:19;;;;;;;9.65;3.40;;;;;;;28.83;52.99;99967.30;1731942;82;21656;-66
2022/08/24 07:50:46;;;;;;;7.35;3.40;;;;;;;28.79;52.91;99963.66;1732231;82;20988;-66
2022/08/24 07:53:14;;;;;;;8.55;3.40;;;;;;;28.86;52.50;99969.31;1742104;80;21114;-67
2022/08/24 07:55:41;;;;;;;7.87;3.20;;;;;;;28.80;52.64;99971.47;1735737;81;21665;-64
2022/08/24 07:58:07;;;;;;;9.45;3.45;;;;;;;28.88;54.12;99964.11;1738049;81;21545;-66
2022/08/24 08:00:35;;;;;;;7.50;3.37;;;;;;;29.10;51.10;99975.69;1731860;82;21043;-67
2022/08/24 08:03:03;;;;;;;12.07;3.83;;;;;;;29.28;51.25;99979.22;1746610;80;21078;-66
2022/08/24 08:05:37;;;;;;;11.93;3.60;;;;;;;29.40;51.93;99988.72;1731627;80;21023;-66
2022/08/24 08:08:03;;;;;;;11.60;3.30;;;;;;;29.56;52.95;99980.19;1706147;82;21112;-66
2022/08/24 08:10:30;;;;;;;14.18;4.00;;;;;;;29.70;50.06;99977.23;1734515;82;21433;-67
2022/08/24 08:12:57;;;;;;;14.53;3.83;;;;;;;29.81;50.16;99984.50;1726054;81;21084;-66
2022/08/24 08:15:24;;;;;;;16.90;4.90;;;;;;;29.94;49.91;99985.77;1718694;81;21017;-66
2022/08/24 08:17:53;;;;;;;17.32;4.28;;;;;;;29.91;48.78;99975.34;1701754;83;21062;-63
2022/08/24 08:20:19;;;;;;;20.77;4.83;;;;;;;29.89;48.84;99972.73;1712938;82;21026;-64
2022/08/24 08:24:14;;;;;;;25.05;6.12;;;;;;;30.02;49.71;99971.97;1760550;79;22881;-66
2022/08/24 08:26:44;;;;;;;21.73;5.30;;;;;;;30.00;48.64;99974.39;1705451;82;21096;-65
2022/08/24 08:29:13;;;;;;;22.70;4.78;;;;;;;29.97;47.92;99978.58;1727556;81;21061;-65
2022/08/24 08:31:40;;;;;;;23.55;5.37;;;;;;;30.09;48.32;99986.63;1700636;83;21077;-65
2022/08/24 08:34:08;;;;;;;19.23;5.45;;;;;;;30.25;47.95;99975.85;1708159;82;21148;-66
2022/08/24 08:36:39;;;;;;;24.85;5.42;;;;;;;30.28;46.84;99976.45;1684868;85;21039;-67
2022/08/24 08:39:11;;;;;;;17.75;5.17;;;;;;;30.31;47.74;99981.86;1653732;84;22058;-67
2022/08/24 08:42:09;;;;;;;28.67;5.05;;;;;;;30.40;46.03;99980.27;1690916;83;21545;-68
2022/08/24 08:45:10;;;;;;;22.77;5.35;;;;;;;30.53;46.68;99976.52;1694658;80;67387;-69
2022/08/24 08:48:12;;;;;;;15.98;4.80;;;;;;;30.61;44.41;99980.31;1753004;80;21077;-67
2022/08/24 08:51:00;;;;;;;25.15;4.83;;;;;;;30.65;43.59;99970.48;1657449;81;21043;-68
2022/08/24 08:53:46;;;;;;;20.17;4.95;;;;;;;30.77;45.13;99975.72;1754205;81;21560;-69
2022/08/24 08:56:45;;;;;;;15.70;4.85;;;;;;;30.59;46.28;99976.31;1680799;81;21846;-69
2022/08/24 08:59:17;;;;;;;22.65;4.45;;;;;;;30.47;47.43;99972.48;1686676;81;21180;-67
2022/08/24 09:02:18;;;;;;;16.65;4.20;;;;;;;30.59;45.62;99978.52;1764481;79;21552;-67
2022/08/24 09:04:55;;;;;;;13.40;3.92;;;;;;;30.75;43.89;99970.30;1753248;80;21082;-68
2022/08/24 09:07:46;;;;;;;18.55;5.35;;;;;;;30.94;45.12;99966.46;1755458;80;21018;-69
2022/08/24 09:10:42;;;;;;;15.70;4.62;;;;;;;31.11;44.92;99964.08;1761626;80;21089;-69
2022/08/24 09:13:49;;;;;;;20.62;3.98;;;;;;;31.24;44.38;99970.87;1787403;80;21355;-67
2022/08/24 09:16:49;;;;;;;17.05;4.10;;;;;;;31.25;41.83;99969.04;1764401;79;21637;-67
2022/08/24 09:19:52;;;;;;;15.85;4.15;;;;;;;31.18;41.37;99975.31;1766405;79;21122;-68
2022/08/24 09:22:19;;;;;;;14.33;3.67;;;;;;;31.20;41.88;99972.88;1770484;79;21019;-69
2022/08/24 09:24:55;;;;;;;13.88;4.08;;;;;;;31.29;41.51;99973.25;1771874;79;21101;-70
2022/08/24 09:28:00;;;;;;;14.43;3.92;;;;;;;31.39;43.99;99975.27;1750026;80;21051;-68
2022/08/24 09:30:47;;;;;;;14.68;3.17;;;;;;;31.40;42.50;99974.03;1716768;82;21082;-67
2022/08/24 09:33:27;;;;;;;16.07;3.70;;;;;;;31.43;43.44;99969.80;1737795;81;20991;-67
2022/08/24 09:36:19;;;;;;;12.95;3.60;;;;;;;31.47;41.00;99964.16;1735791;81;21678;-69
2022/08/24 09:39:04;;;;;;;12.60;3.15;;;;;;;31.40;40.36;99974.03;1699212;83;21040;-67
2022/08/24 09:42:04;;;;;;;16.57;3.17;;;;;;;31.30;40.34;99963.61;1758444;80;21460;-69
2022/08/24 09:45:06;;;;;;;12.33;3.83;;;;;;;31.20;38.85;99967.26;1750202;80;21061;-68
2022/08/24 09:47:56;;;;;;;12.68;3.02;;;;;;;31.04;40.08;99966.27;1678499;84;21063;-68
2022/08/24 09:50:58;;;;;;;10.53;2.92;;;;;;;30.89;39.31;99964.05;1767108;80;22290;-68
2022/08/24 09:54:02;;;;;;;12.35;7.40;;;;;;;30.80;38.89;99969.88;1760003;80;21059;-69
2022/08/24 09:56:49;;;;;;;12.18;3.60;;;;;;;30.68;40.13;99965.46;1757925;80;22247;-68
2022/08/24 09:59:44;;;;;;;11.25;3.40;;;;;;;30.69;40.46;99972.70;1770134;79;21046;-68
2022/08/24 10:02:55;;;;;;;10.00;3.37;;;;;;;30.71;38.84;99954.85;1765322;79;22255;-70
2022/08/24 10:06:03;;;;;;;8.85;2.62;;;;;;;30.73;39.88;99969.28;1764877;80;21478;-69
2022/08/24 10:09:03;;;;;;;10.60;3.10;;;;;;;30.74;39.63;99968.09;1727915;79;21022;-68
2022/08/24 10:11:59;;;;;;;11.78;2.80;;;;;;;30.78;39.68;99968.09;1752395;79;21125;-68
2022/08/24 10:15:08;;;;;;;15.32;3.47;;;;;;;30.82;38.93;99966.09;1779918;79;21640;-68
2022/08/24 10:18:01;;;;;;;7.97;2.67;;;;;;;30.77;37.59;99962.26;1782940;79;20978;-69
2022/08/24 10:20:52;;;;;;;7.37;2.67;;;;;;;30.67;39.35;99960.27;1772969;80;21886;-70
2022/08/24 10:23:48;;;;;;;8.68;2.80;;;;;;;30.68;40.54;99961.25;1780006;80;21041;-68
2022/08/24 10:26:20;;;;;;;10.65;2.70;;;;;;;30.74;40.56;99958.26;1755561;80;21647;-69
2022/08/24 10:29:32;;;;;;;9.80;2.70;;;;;;;30.85;40.62;99957.66;1772771;79;21654;-68
2022/08/24 10:32:16;;;;;;;8.70;2.62;;;;;;;30.89;38.75;99952.03;1769530;80;21015;-68
2022/08/24 10:35:06;;;;;;;14.33;3.12;;;;;;;30.83;40.11;99955.83;1770842;79;21556;-69
2022/08/24 10:41:02;;;;;;;9.53;2.37;;;;;;;30.94;40.44;99957.22;1782568;79;21023;-69
2022/08/24 10:43:58;;;;;;;11.73;2.75;;;;;;;30.94;38.60;99949.59;1752689;80;21058;-69
2022/08/24 10:46:51;;;;;;;10.63;2.50;;;;;;;30.94;38.42;99958.62;1764329;79;21070;-69
2022/08/24 10:49:39;;;;;;;14.13;3.02;;;;;;;30.93;38.79;99950.80;1713325;81;21117;-68
2022/08/24 10:52:45;;;;;;;9.23;2.47;;;;;;;30.94;37.69;99955.81;1717780;82;21047;-69
2022/08/24 10:55:28;;;;;;;5.58;2.65;;;;;;;30.90;37.89;99954.41;1708656;82;21490;-68
2022/08/24 10:58:39;;;;;;;8.28;2.47;;;;;;;30.92;39.56;99956.23;1723205;83;21403;-68
2022/08/24 11:01:25;;;;;;;9.88;2.75;;;;;;;30.93;38.01;99962.04;1712787;83;20990;-66
2022/08/24 11:04:00;;;;;;;7.65;2.62;;;;;;;30.90;38.81;99964.85;1727054;81;21022;-67
2022/08/24 11:06:40;;;;;;;16.95;7.78;;;;;;;30.94;39.57;99954.41;1734616;81;21588;-68
2022/08/24 11:09:16;;;;;;;8.70;4.42;;;;;;;30.97;38.99;99947.41;1744301;81;21497;-67
2022/08/24 11:11:46;;;;;;;8.77;2.63;;;;;;;31.01;39.29;99953.83;1746077;81;21010;-68
2022/08/24 11:14:28;;;;;;;17.05;10.68;;;;;;;31.05;38.77;99954.64;1731503;81;21907;-67
2022/08/24 11:17:15;;;;;;;12.58;5.40;;;;;;;31.04;39.23;99950.21;1729885;81;20995;-67
2022/08/24 11:19:41;;;;;;;16.15;4.15;;;;;;;31.04;38.80;99945.19;1734745;81;21082;-68
2022/08/24 11:22:35;;;;;;;9.55;3.17;;;;;;;31.06;39.33;99937.97;1708833;82;21030;-69
2022/08/24 11:25:22;;;;;;;11.40;2.75;;;;;;;31.10;40.52;99939.37;1739650;82;21695;-68
2022/08/24 11:27:51;;;;;;;11.33;2.65;;;;;;;31.19;40.66;99943.15;1685889;84;21108;-68
2022/08/24 11:30:25;;;;;;;10.78;2.58;;;;;;;31.26;40.04;99940.32;1703868;81;21077;-68
2022/08/24 11:32:59;;;;;;;11.38;2.98;;;;;;;31.29;40.00;99938.91;1740140;81;21087;-68
2022/08/24 11:35:35;;;;;;;6.72;2.80;;;;;;;31.33;41.82;99941.70;1724175;82;21093;-68
2022/08/24 11:38:15;;;;;;;11.60;2.92;;;;;;;31.33;40.46;99941.11;1722036;83;21003;-69
2022/08/24 11:41:04;;;;;;;8.73;2.55;;;;;;;31.34;40.14;99936.28;1697969;83;21172;-69
2022/08/24 11:43:57;;;;;;;10.18;2.45;;;;;;;31.33;40.20;99941.11;1708798;83;21621;-68
2022/08/24 11:46:38;;;;;;;9.75;2.45;;;;;;;31.29;39.74;99936.09;1756310;81;21038;-68
2022/08/24 11:49:20;;;;;;;9.58;2.50;;;;;;;31.27;38.85;99937.11;1793558;79;21616;-69
2022/08/24 11:52:01;;;;;;;9.30;2.47;;;;;;;31.22;39.27;99936.11;1775193;79;21026;-69
2022/08/24 12:01:01;;;;;;;10.78;2.33;;;;;;;31.21;39.58;99933.13;1689629;82;21161;-71
2022/08/24 12:03:42;;;;;;;7.10;2.20;;;;;;;31.20;39.42;99930.70;1679930;83;21058;-69
2022/08/24 12:06:54;;;;;;;10.90;2.08;;;;;;;31.23;39.51;99927.88;1674681;85;21641;-70
2022/08/24 12:12:50;;;;;;;9.90;2.80;;;;;;;31.24;39.67;99932.30;1702218;82;21012;-71
2022/08/24 12:15:42;;;;;;;7.55;2.47;;;;;;;31.27;39.29;99930.08;1674683;83;21140;-70
2022/08/24 12:18:21;;;;;;;11.55;2.47;;;;;;;31.31;39.49;99923.04;1684473;85;21577;-72